sensor_id;sensor_type;location;lat;lon;timestamp;temperature;humidity
50586;DHT22;36542;51.700;8.846;2024-03-02T00:02:24;6.40;99.90
50586;DHT22;36542;51.700;8.846;2024-03-02T00:04:50;6.30;99.90
50586;DHT22;36542;51.700;8.846;2024-03-02T00:07:16;6.30;99.90
50586;DHT22;36542;51.700;8.846;2024-03-02T00:09:42;6.30;99.90
50586;DHT22;36542;51.700;8.846;2024-03-02T00:12:08;6.20;99.90
50586;DHT22;36542;51.700;8.846;2024-03-02T00:14:37;6.30;99.90
50586;DHT22;36542;51.700;8.846;2024-03-02T00:17:02;6.20;99.90
50586;DHT22;36542;51.700;8.846;2024-03-02T00:19:28;6.20;99.90
50586;DHT22;36542;51.700;8.846;2024-03-02T00:21:54;6.10;99.90
50586;DHT22;36542;51.700;8.846;2024-03-02T00:24:32;6.10;99.90
50586;DHT22;36542;51.700;8.846;2024-03-02T00:26:59;6.10;99.90
50586;DHT22;36542;51.700;8.846;2024-03-02T00:29:25;6.10;99.90
50586;DHT22;36542;51.700;8.846;2024-03-02T00:31:51;6.10;99.90
50586;DHT22;36542;51.700;8.846;2024-03-02T00:34:17;6.10;99.90
50586;DHT22;36542;51.700;8.846;2024-03-02T00:36:43;6.10;99.90
50586;DHT22;36542;51.700;8.846;2024-03-02T00:39:12;6.00;99.90
50586;DHT22;36542;51.700;8.846;2024-03-02T00:41:41;6.00;99.90
50586;DHT22;36542;51.700;8.846;2024-03-02T00:44:09;6.00;99.90
50586;DHT22;36542;51.700;8.846;2024-03-02T00:46:41;6.00;99.90
50586;DHT22;36542;51.700;8.846;2024-03-02T00:49:23;6.00;99.90
50586;DHT22;36542;51.700;8.846;2024-03-02T00:51:52;6.00;99.90
50586;DHT22;36542;51.700;8.846;2024-03-02T00:54:23;6.00;99.90
50586;DHT22;36542;51.700;8.846;2024-03-02T00:56:50;6.00;99.90
50586;DHT22;36542;51.700;8.846;2024-03-02T00:59:16;6.00;99.90
50586;DHT22;36542;51.700;8.846;2024-03-02T01:01:42;5.90;99.90
50586;DHT22;36542;51.700;8.846;2024-03-02T01:04:08;5.90;99.90
50586;DHT22;36542;51.700;8.846;2024-03-02T01:06:35;5.90;99.90
50586;DHT22;36542;51.700;8.846;2024-03-02T01:09:01;5.90;99.90
50586;DHT22;36542;51.700;8.846;2024-03-02T01:11:26;5.90;99.90
50586;DHT22;36542;51.700;8.846;2024-03-02T01:13:52;5.90;99.90
50586;DHT22;36542;51.700;8.846;2024-03-02T01:16:18;5.90;99.90
50586;DHT22;36542;51.700;8.846;2024-03-02T01:18:44;5.90;99.90
50586;DHT22;36542;51.700;8.846;2024-03-02T01:21:09;5.90;99.90
50586;DHT22;36542;51.700;8.846;2024-03-02T01:23:35;5.90;99.90
50586;DHT22;36542;51.700;8.846;2024-03-02T01:26:00;5.90;99.90
50586;DHT22;36542;51.700;8.846;2024-03-02T01:28:26;5.90;99.90
50586;DHT22;36542;51.700;8.846;2024-03-02T01:30:52;5.90;99.90
50586;DHT22;36542;51.700;8.846;2024-03-02T01:33:18;5.90;99.90
50586;DHT22;36542;51.700;8.846;2024-03-02T01:35:44;5.80;99.90
50586;DHT22;36542;51.700;8.846;2024-03-02T01:38:10;5.80;99.90
50586;DHT22;36542;51.700;8.846;2024-03-02T01:40:36;5.90;99.90
50586;DHT22;36542;51.700;8.846;2024-03-02T01:43:04;5.90;99.90
50586;DHT22;36542;51.700;8.846;2024-03-02T01:45:29;5.90;99.90
50586;DHT22;36542;51.700;8.846;2024-03-02T01:47:55;5.90;99.90
50586;DHT22;36542;51.700;8.846;2024-03-02T01:50:39;5.90;99.90
50586;DHT22;36542;51.700;8.846;2024-03-02T01:53:05;5.80;99.90
50586;DHT22;36542;51.700;8.846;2024-03-02T01:55:30;5.80;99.90
50586;DHT22;36542;51.700;8.846;2024-03-02T01:57:57;5.80;99.90
50586;DHT22;36542;51.700;8.846;2024-03-02T02:00:23;5.90;99.90
50586;DHT22;36542;51.700;8.846;2024-03-02T02:02:51;5.80;99.90
50586;DHT22;36542;51.700;8.846;2024-03-02T02:05:17;5.80;99.90
50586;DHT22;36542;51.700;8.846;2024-03-02T02:07:43;5.80;99.90
50586;DHT22;36542;51.700;8.846;2024-03-02T02:10:10;5.70;99.90
50586;DHT22;36542;51.700;8.846;2024-03-02T02:12:36;5.80;99.90
50586;DHT22;36542;51.700;8.846;2024-03-02T02:15:03;5.80;99.90
50586;DHT22;36542;51.700;8.846;2024-03-02T02:17:28;5.80;99.90
50586;DHT22;36542;51.700;8.846;2024-03-02T02:19:54;5.80;99.90
50586;DHT22;36542;51.700;8.846;2024-03-02T02:22:19;5.80;99.90
50586;DHT22;36542;51.700;8.846;2024-03-02T02:24:45;5.80;99.90
50586;DHT22;36542;51.700;8.846;2024-03-02T02:27:11;5.80;99.90
50586;DHT22;36542;51.700;8.846;2024-03-02T02:29:38;5.90;99.90
50586;DHT22;36542;51.700;8.846;2024-03-02T02:32:04;6.00;99.90
50586;DHT22;36542;51.700;8.846;2024-03-02T02:34:29;6.00;99.90
50586;DHT22;36542;51.700;8.846;2024-03-02T02:36:55;5.90;99.90
50586;DHT22;36542;51.700;8.846;2024-03-02T02:39:22;5.80;99.90
50586;DHT22;36542;51.700;8.846;2024-03-02T02:41:50;5.80;99.90
50586;DHT22;36542;51.700;8.846;2024-03-02T02:44:16;5.80;99.90
50586;DHT22;36542;51.700;8.846;2024-03-02T02:46:41;5.80;99.90
50586;DHT22;36542;51.700;8.846;2024-03-02T02:49:07;5.90;99.90
50586;DHT22;36542;51.700;8.846;2024-03-02T02:51:33;5.90;99.90
50586;DHT22;36542;51.700;8.846;2024-03-02T02:53:59;5.90;99.90
50586;DHT22;36542;51.700;8.846;2024-03-02T02:56:24;5.90;99.90
50586;DHT22;36542;51.700;8.846;2024-03-02T02:58:50;5.90;99.90
50586;DHT22;36542;51.700;8.846;2024-03-02T03:01:16;5.90;99.90
50586;DHT22;36542;51.700;8.846;2024-03-02T03:03:45;5.90;99.90
50586;DHT22;36542;51.700;8.846;2024-03-02T03:06:11;5.80;99.90
50586;DHT22;36542;51.700;8.846;2024-03-02T03:08:36;5.80;99.90
50586;DHT22;36542;51.700;8.846;2024-03-02T03:11:03;5.80;99.90
50586;DHT22;36542;51.700;8.846;2024-03-02T03:13:28;5.80;99.90
50586;DHT22;36542;51.700;8.846;2024-03-02T03:15:54;5.80;99.90
50586;DHT22;36542;51.700;8.846;2024-03-02T03:18:19;5.90;99.90
50586;DHT22;36542;51.700;8.846;2024-03-02T03:20:45;5.80;99.90
50586;DHT22;36542;51.700;8.846;2024-03-02T03:23:11;5.80;99.90
50586;DHT22;36542;51.700;8.846;2024-03-02T03:25:41;5.70;99.90
50586;DHT22;36542;51.700;8.846;2024-03-02T03:28:07;5.70;99.90
50586;DHT22;36542;51.700;8.846;2024-03-02T03:30:38;5.60;99.90
50586;DHT22;36542;51.700;8.846;2024-03-02T03:33:04;5.60;99.90
50586;DHT22;36542;51.700;8.846;2024-03-02T03:35:33;5.60;99.90
50586;DHT22;36542;51.700;8.846;2024-03-02T03:37:58;5.60;99.90
50586;DHT22;36542;51.700;8.846;2024-03-02T03:40:24;5.50;99.90
50586;DHT22;36542;51.700;8.846;2024-03-02T03:42:50;5.50;99.90
50586;DHT22;36542;51.700;8.846;2024-03-02T03:45:16;5.50;99.90
50586;DHT22;36542;51.700;8.846;2024-03-02T03:47:41;5.50;99.90
50586;DHT22;36542;51.700;8.846;2024-03-02T03:50:07;5.50;99.90
50586;DHT22;36542;51.700;8.846;2024-03-02T03:52:33;5.60;99.90
50586;DHT22;36542;51.700;8.846;2024-03-02T03:54:59;5.50;99.90
50586;DHT22;36542;51.700;8.846;2024-03-02T03:57:26;5.60;99.90
50586;DHT22;36542;51.700;8.846;2024-03-02T03:59:52;5.50;99.90
50586;DHT22;36542;51.700;8.846;2024-03-02T04:02:17;5.50;99.90
50586;DHT22;36542;51.700;8.846;2024-03-02T04:04:43;5.60;99.90
50586;DHT22;36542;51.700;8.846;2024-03-02T04:07:09;5.50;99.90
50586;DHT22;36542;51.700;8.846;2024-03-02T04:09:34;5.60;99.90
50586;DHT22;36542;51.700;8.846;2024-03-02T04:12:00;5.60;99.90
50586;DHT22;36542;51.700;8.846;2024-03-02T04:14:25;5.60;99.90
50586;DHT22;36542;51.700;8.846;2024-03-02T04:16:51;5.60;99.90
50586;DHT22;36542;51.700;8.846;2024-03-02T04:19:17;5.60;99.90
50586;DHT22;36542;51.700;8.846;2024-03-02T04:21:42;5.60;99.90
50586;DHT22;36542;51.700;8.846;2024-03-02T04:24:08;5.60;99.90
50586;DHT22;36542;51.700;8.846;2024-03-02T04:26:33;5.60;99.90
50586;DHT22;36542;51.700;8.846;2024-03-02T04:28:59;5.60;99.90
50586;DHT22;36542;51.700;8.846;2024-03-02T04:31:25;5.60;99.90
50586;DHT22;36542;51.700;8.846;2024-03-02T04:33:50;5.60;99.90
50586;DHT22;36542;51.700;8.846;2024-03-02T04:36:16;5.50;99.90
50586;DHT22;36542;51.700;8.846;2024-03-02T04:38:42;5.50;99.90
50586;DHT22;36542;51.700;8.846;2024-03-02T04:41:07;5.50;99.90
50586;DHT22;36542;51.700;8.846;2024-03-02T04:43:34;5.50;99.90
50586;DHT22;36542;51.700;8.846;2024-03-02T04:46:03;5.50;99.90
50586;DHT22;36542;51.700;8.846;2024-03-02T04:48:28;5.50;99.90
50586;DHT22;36542;51.700;8.846;2024-03-02T04:50:54;5.50;99.90
50586;DHT22;36542;51.700;8.846;2024-03-02T04:53:20;5.50;99.90
50586;DHT22;36542;51.700;8.846;2024-03-02T04:55:45;5.50;99.90
50586;DHT22;36542;51.700;8.846;2024-03-02T04:58:31;5.50;99.90
50586;DHT22;36542;51.700;8.846;2024-03-02T05:00:56;5.60;99.90
50586;DHT22;36542;51.700;8.846;2024-03-02T05:03:22;5.50;99.90
50586;DHT22;36542;51.700;8.846;2024-03-02T05:05:48;5.50;99.90
50586;DHT22;36542;51.700;8.846;2024-03-02T05:08:13;5.50;99.90
50586;DHT22;36542;51.700;8.846;2024-03-02T05:10:39;5.50;99.90
50586;DHT22;36542;51.700;8.846;2024-03-02T05:13:05;5.50;99.90
50586;DHT22;36542;51.700;8.846;2024-03-02T05:15:30;5.50;99.90
50586;DHT22;36542;51.700;8.846;2024-03-02T05:17:57;5.50;99.90
50586;DHT22;36542;51.700;8.846;2024-03-02T05:20:23;5.50;99.90
50586;DHT22;36542;51.700;8.846;2024-03-02T05:22:48;5.50;99.90
50586;DHT22;36542;51.700;8.846;2024-03-02T05:25:15;5.60;99.90
50586;DHT22;36542;51.700;8.846;2024-03-02T05:27:40;5.60;99.90
50586;DHT22;36542;51.700;8.846;2024-03-02T05:30:07;5.60;99.90
50586;DHT22;36542;51.700;8.846;2024-03-02T05:32:33;5.60;99.90
50586;DHT22;36542;51.700;8.846;2024-03-02T05:34:59;5.60;99.90
50586;DHT22;36542;51.700;8.846;2024-03-02T05:37:25;5.60;99.90
50586;DHT22;36542;51.700;8.846;2024-03-02T05:39:50;5.60;99.90
50586;DHT22;36542;51.700;8.846;2024-03-02T05:42:16;5.60;99.90
50586;DHT22;36542;51.700;8.846;2024-03-02T05:44:44;5.60;99.90
50586;DHT22;36542;51.700;8.846;2024-03-02T05:47:10;5.60;99.90
50586;DHT22;36542;51.700;8.846;2024-03-02T05:49:35;5.50;99.90
50586;DHT22;36542;51.700;8.846;2024-03-02T05:52:01;5.50;99.90
50586;DHT22;36542;51.700;8.846;2024-03-02T05:54:27;5.50;99.90
50586;DHT22;36542;51.700;8.846;2024-03-02T05:56:52;5.50;99.90
50586;DHT22;36542;51.700;8.846;2024-03-02T05:59:18;5.40;99.90
50586;DHT22;36542;51.700;8.846;2024-03-02T06:01:45;5.50;99.90
50586;DHT22;36542;51.700;8.846;2024-03-02T06:04:15;5.50;99.90
50586;DHT22;36542;51.700;8.846;2024-03-02T06:06:41;5.50;99.90
50586;DHT22;36542;51.700;8.846;2024-03-02T06:09:07;5.40;99.90
50586;DHT22;36542;51.700;8.846;2024-03-02T06:11:40;5.40;99.90
50586;DHT22;36542;51.700;8.846;2024-03-02T06:14:06;5.40;99.90
50586;DHT22;36542;51.700;8.846;2024-03-02T06:16:33;5.30;99.90
50586;DHT22;36542;51.700;8.846;2024-03-02T06:18:59;5.40;99.90
50586;DHT22;36542;51.700;8.846;2024-03-02T06:21:25;5.40;99.90
50586;DHT22;36542;51.700;8.846;2024-03-02T06:23:51;5.40;99.90
50586;DHT22;36542;51.700;8.846;2024-03-02T06:26:18;5.40;99.90
50586;DHT22;36542;51.700;8.846;2024-03-02T06:28:44;5.40;99.90
50586;DHT22;36542;51.700;8.846;2024-03-02T06:31:10;5.40;99.90
50586;DHT22;36542;51.700;8.846;2024-03-02T06:33:36;5.50;99.90
50586;DHT22;36542;51.700;8.846;2024-03-02T06:36:02;5.50;99.90
50586;DHT22;36542;51.700;8.846;2024-03-02T06:38:28;5.50;99.90
50586;DHT22;36542;51.700;8.846;2024-03-02T06:40:53;5.60;99.90
50586;DHT22;36542;51.700;8.846;2024-03-02T06:43:20;5.60;99.90
50586;DHT22;36542;51.700;8.846;2024-03-02T06:45:50;5.70;99.90
50586;DHT22;36542;51.700;8.846;2024-03-02T06:48:16;5.70;99.90
50586;DHT22;36542;51.700;8.846;2024-03-02T06:50:46;5.80;99.90
50586;DHT22;36542;51.700;8.846;2024-03-02T06:53:12;5.90;99.90
50586;DHT22;36542;51.700;8.846;2024-03-02T06:55:38;6.00;99.90
50586;DHT22;36542;51.700;8.846;2024-03-02T06:58:03;6.20;99.90
50586;DHT22;36542;51.700;8.846;2024-03-02T07:00:30;6.30;99.90
50586;DHT22;36542;51.700;8.846;2024-03-02T07:02:55;6.50;99.90
50586;DHT22;36542;51.700;8.846;2024-03-02T07:05:21;6.70;99.90
50586;DHT22;36542;51.700;8.846;2024-03-02T07:07:47;6.70;99.90
50586;DHT22;36542;51.700;8.846;2024-03-02T07:10:12;6.70;99.90
50586;DHT22;36542;51.700;8.846;2024-03-02T07:12:38;6.70;99.90
50586;DHT22;36542;51.700;8.846;2024-03-02T07:15:04;6.60;99.90
50586;DHT22;36542;51.700;8.846;2024-03-02T07:17:30;6.60;99.90
50586;DHT22;36542;51.700;8.846;2024-03-02T07:19:56;6.50;99.90
50586;DHT22;36542;51.700;8.846;2024-03-02T07:22:22;6.50;99.90
50586;DHT22;36542;51.700;8.846;2024-03-02T07:24:48;6.50;99.90
50586;DHT22;36542;51.700;8.846;2024-03-02T07:27:15;6.50;99.90
50586;DHT22;36542;51.700;8.846;2024-03-02T07:29:41;6.50;99.90
50586;DHT22;36542;51.700;8.846;2024-03-02T07:32:08;6.60;99.90
50586;DHT22;36542;51.700;8.846;2024-03-02T07:34:34;6.60;99.90
50586;DHT22;36542;51.700;8.846;2024-03-02T07:37:00;6.60;99.90
50586;DHT22;36542;51.700;8.846;2024-03-02T07:39:26;6.60;99.90
50586;DHT22;36542;51.700;8.846;2024-03-02T07:41:51;6.60;99.90
50586;DHT22;36542;51.700;8.846;2024-03-02T07:44:17;6.60;99.90
50586;DHT22;36542;51.700;8.846;2024-03-02T07:46:45;6.70;99.90
50586;DHT22;36542;51.700;8.846;2024-03-02T07:49:18;6.70;99.90
50586;DHT22;36542;51.700;8.846;2024-03-02T07:51:44;6.70;99.90
50586;DHT22;36542;51.700;8.846;2024-03-02T07:54:10;6.70;99.90
50586;DHT22;36542;51.700;8.846;2024-03-02T07:56:36;6.80;99.90
50586;DHT22;36542;51.700;8.846;2024-03-02T07:59:03;6.80;99.90
50586;DHT22;36542;51.700;8.846;2024-03-02T08:01:30;6.90;99.90
50586;DHT22;36542;51.700;8.846;2024-03-02T08:03:59;7.00;99.90
50586;DHT22;36542;51.700;8.846;2024-03-02T08:06:28;7.10;99.90
50586;DHT22;36542;51.700;8.846;2024-03-02T08:11:41;7.40;99.90
50586;DHT22;36542;51.700;8.846;2024-03-02T08:14:07;7.70;99.90
50586;DHT22;36542;51.700;8.846;2024-03-02T08:16:32;7.80;99.90
50586;DHT22;36542;51.700;8.846;2024-03-02T08:18:59;7.80;99.90
50586;DHT22;36542;51.700;8.846;2024-03-02T08:21:25;7.80;99.90
50586;DHT22;36542;51.700;8.846;2024-03-02T08:23:51;7.90;99.90
50586;DHT22;36542;51.700;8.846;2024-03-02T08:26:16;7.90;99.90
50586;DHT22;36542;51.700;8.846;2024-03-02T08:28:42;7.80;99.90
50586;DHT22;36542;51.700;8.846;2024-03-02T08:31:09;8.20;99.90
50586;DHT22;36542;51.700;8.846;2024-03-02T08:33:35;8.70;99.90
50586;DHT22;36542;51.700;8.846;2024-03-02T08:36:01;9.10;99.90
50586;DHT22;36542;51.700;8.846;2024-03-02T08:38:28;9.80;99.90
50586;DHT22;36542;51.700;8.846;2024-03-02T08:40:53;10.70;99.90
50586;DHT22;36542;51.700;8.846;2024-03-02T08:43:19;11.50;99.90
50586;DHT22;36542;51.700;8.846;2024-03-02T08:45:45;12.40;99.90
50586;DHT22;36542;51.700;8.846;2024-03-02T08:48:11;13.10;99.90
50586;DHT22;36542;51.700;8.846;2024-03-02T08:50:36;13.60;99.90
50586;DHT22;36542;51.700;8.846;2024-03-02T08:53:03;13.80;99.90
50586;DHT22;36542;51.700;8.846;2024-03-02T08:55:29;13.90;99.90
50586;DHT22;36542;51.700;8.846;2024-03-02T08:57:55;14.30;99.90
50586;DHT22;36542;51.700;8.846;2024-03-02T09:00:21;14.20;99.90
50586;DHT22;36542;51.700;8.846;2024-03-02T09:02:46;13.60;99.90
50586;DHT22;36542;51.700;8.846;2024-03-02T09:05:12;14.80;99.90
50586;DHT22;36542;51.700;8.846;2024-03-02T09:07:38;15.00;99.90
50586;DHT22;36542;51.700;8.846;2024-03-02T09:10:05;14.80;99.90
50586;DHT22;36542;51.700;8.846;2024-03-02T09:12:31;13.80;99.90
50586;DHT22;36542;51.700;8.846;2024-03-02T09:14:57;14.10;99.90
50586;DHT22;36542;51.700;8.846;2024-03-02T09:17:23;14.40;99.90
50586;DHT22;36542;51.700;8.846;2024-03-02T09:19:49;13.70;99.90
50586;DHT22;36542;51.700;8.846;2024-03-02T09:22:18;13.40;99.90
50586;DHT22;36542;51.700;8.846;2024-03-02T09:24:44;12.50;99.90
50586;DHT22;36542;51.700;8.846;2024-03-02T09:27:09;12.50;99.90
50586;DHT22;36542;51.700;8.846;2024-03-02T09:29:35;12.90;99.90
50586;DHT22;36542;51.700;8.846;2024-03-02T09:32:01;13.10;99.90
50586;DHT22;36542;51.700;8.846;2024-03-02T09:34:27;12.70;99.90
50586;DHT22;36542;51.700;8.846;2024-03-02T09:36:53;13.20;99.90
50586;DHT22;36542;51.700;8.846;2024-03-02T09:39:18;13.80;99.90
50586;DHT22;36542;51.700;8.846;2024-03-02T09:41:44;13.20;99.90
50586;DHT22;36542;51.700;8.846;2024-03-02T09:44:10;14.00;99.90
50586;DHT22;36542;51.700;8.846;2024-03-02T09:46:35;14.50;99.90
50586;DHT22;36542;51.700;8.846;2024-03-02T09:49:02;15.00;99.90
50586;DHT22;36542;51.700;8.846;2024-03-02T09:51:28;14.70;99.90
50586;DHT22;36542;51.700;8.846;2024-03-02T09:53:54;15.10;99.90
50586;DHT22;36542;51.700;8.846;2024-03-02T09:56:21;14.90;99.90
50586;DHT22;36542;51.700;8.846;2024-03-02T09:58:47;14.60;99.90
50586;DHT22;36542;51.700;8.846;2024-03-02T10:01:12;14.10;99.90
50586;DHT22;36542;51.700;8.846;2024-03-02T10:03:38;14.00;99.90
50586;DHT22;36542;51.700;8.846;2024-03-02T10:06:24;14.70;99.90
50586;DHT22;36542;51.700;8.846;2024-03-02T10:08:50;15.30;99.90
50586;DHT22;36542;51.700;8.846;2024-03-02T10:14:10;16.10;99.90
50586;DHT22;36542;51.700;8.846;2024-03-02T10:16:36;17.50;99.90
50586;DHT22;36542;51.700;8.846;2024-03-02T10:19:24;18.10;99.90
50586;DHT22;36542;51.700;8.846;2024-03-02T10:21:53;17.60;99.90
50586;DHT22;36542;51.700;8.846;2024-03-02T10:24:21;17.00;99.90
50586;DHT22;36542;51.700;8.846;2024-03-02T10:26:47;17.20;99.90
50586;DHT22;36542;51.700;8.846;2024-03-02T10:29:13;16.20;99.90
50586;DHT22;36542;51.700;8.846;2024-03-02T10:31:40;16.20;99.90
50586;DHT22;36542;51.700;8.846;2024-03-02T10:34:07;15.40;99.90
50586;DHT22;36542;51.700;8.846;2024-03-02T10:36:36;16.60;99.90
50586;DHT22;36542;51.700;8.846;2024-03-02T10:39:06;17.50;99.90
50586;DHT22;36542;51.700;8.846;2024-03-02T10:41:33;16.60;99.90
50586;DHT22;36542;51.700;8.846;2024-03-02T10:44:04;16.70;99.90
50586;DHT22;36542;51.700;8.846;2024-03-02T10:46:31;16.80;99.90
50586;DHT22;36542;51.700;8.846;2024-03-02T10:48:58;16.70;99.90
50586;DHT22;36542;51.700;8.846;2024-03-02T10:51:25;16.30;99.90
50586;DHT22;36542;51.700;8.846;2024-03-02T10:53:52;15.50;99.90
50586;DHT22;36542;51.700;8.846;2024-03-02T10:56:23;15.50;99.90
50586;DHT22;36542;51.700;8.846;2024-03-02T10:59:01;15.60;99.90
50586;DHT22;36542;51.700;8.846;2024-03-02T11:01:29;14.90;99.90
50586;DHT22;36542;51.700;8.846;2024-03-02T11:04:02;14.60;99.90
50586;DHT22;36542;51.700;8.846;2024-03-02T11:06:29;14.90;99.90
50586;DHT22;36542;51.700;8.846;2024-03-02T11:09:01;15.70;99.90
50586;DHT22;36542;51.700;8.846;2024-03-02T11:11:32;15.50;99.90
50586;DHT22;36542;51.700;8.846;2024-03-02T11:14:01;15.90;99.90
50586;DHT22;36542;51.700;8.846;2024-03-02T11:16:37;15.30;99.90
50586;DHT22;36542;51.700;8.846;2024-03-02T11:19:13;15.20;99.90
50586;DHT22;36542;51.700;8.846;2024-03-02T11:21:39;15.10;99.90
50586;DHT22;36542;51.700;8.846;2024-03-02T11:26:50;14.20;99.90
50586;DHT22;36542;51.700;8.846;2024-03-02T11:32:12;14.10;99.90
50586;DHT22;36542;51.700;8.846;2024-03-02T11:34:41;13.90;99.90
50586;DHT22;36542;51.700;8.846;2024-03-02T11:37:15;14.40;99.90
50586;DHT22;36542;51.700;8.846;2024-03-02T11:39:43;14.20;99.90
50586;DHT22;36542;51.700;8.846;2024-03-02T11:42:11;13.60;99.90
50586;DHT22;36542;51.700;8.846;2024-03-02T11:44:37;13.50;99.90
50586;DHT22;36542;51.700;8.846;2024-03-02T11:47:08;13.60;99.90
50586;DHT22;36542;51.700;8.846;2024-03-02T11:49:51;13.30;99.90
50586;DHT22;36542;51.700;8.846;2024-03-02T11:52:18;12.80;99.90
50586;DHT22;36542;51.700;8.846;2024-03-02T11:54:45;12.90;99.90
50586;DHT22;36542;51.700;8.846;2024-03-02T11:57:15;12.90;99.90
50586;DHT22;36542;51.700;8.846;2024-03-02T11:59:42;12.70;99.90
50586;DHT22;36542;51.700;8.846;2024-03-02T12:02:15;12.70;99.90
50586;DHT22;36542;51.700;8.846;2024-03-02T12:04:42;12.70;99.90
50586;DHT22;36542;51.700;8.846;2024-03-02T12:07:09;12.60;99.90
50586;DHT22;36542;51.700;8.846;2024-03-02T12:09:35;12.90;99.90
50586;DHT22;36542;51.700;8.846;2024-03-02T12:12:05;12.60;99.90
50586;DHT22;36542;51.700;8.846;2024-03-02T12:14:32;12.90;99.90
50586;DHT22;36542;51.700;8.846;2024-03-02T12:16:58;13.00;99.90
50586;DHT22;36542;51.700;8.846;2024-03-02T12:19:25;12.90;99.90
50586;DHT22;36542;51.700;8.846;2024-03-02T12:21:52;12.90;99.90
50586;DHT22;36542;51.700;8.846;2024-03-02T12:24:18;12.90;99.90
50586;DHT22;36542;51.700;8.846;2024-03-02T12:26:44;12.90;99.90
50586;DHT22;36542;51.700;8.846;2024-03-02T12:29:10;12.90;99.90
50586;DHT22;36542;51.700;8.846;2024-03-02T12:31:36;12.80;99.90
50586;DHT22;36542;51.700;8.846;2024-03-02T12:34:03;12.90;99.90
50586;DHT22;36542;51.700;8.846;2024-03-02T12:36:29;13.10;99.90
50586;DHT22;36542;51.700;8.846;2024-03-02T12:38:55;13.10;99.90
50586;DHT22;36542;51.700;8.846;2024-03-02T12:41:21;13.10;99.90
50586;DHT22;36542;51.700;8.846;2024-03-02T12:43:46;13.00;99.90
50586;DHT22;36542;51.700;8.846;2024-03-02T12:46:12;13.20;99.90
50586;DHT22;36542;51.700;8.846;2024-03-02T12:48:38;13.20;99.90
50586;DHT22;36542;51.700;8.846;2024-03-02T12:51:06;13.20;99.90
50586;DHT22;36542;51.700;8.846;2024-03-02T12:53:32;13.40;99.90
50586;DHT22;36542;51.700;8.846;2024-03-02T12:55:58;13.60;99.90
50586;DHT22;36542;51.700;8.846;2024-03-02T12:58:24;13.70;99.90
50586;DHT22;36542;51.700;8.846;2024-03-02T13:00:50;13.60;99.90
50586;DHT22;36542;51.700;8.846;2024-03-02T13:03:18;13.40;99.90
50586;DHT22;36542;51.700;8.846;2024-03-02T13:05:49;13.30;99.90
50586;DHT22;36542;51.700;8.846;2024-03-02T13:08:16;13.30;99.90
50586;DHT22;36542;51.700;8.846;2024-03-02T13:10:41;13.10;99.90
50586;DHT22;36542;51.700;8.846;2024-03-02T13:13:07;13.10;99.90
50586;DHT22;36542;51.700;8.846;2024-03-02T13:15:33;13.20;99.90
50586;DHT22;36542;51.700;8.846;2024-03-02T13:17:59;13.40;99.90
50586;DHT22;36542;51.700;8.846;2024-03-02T13:20:31;13.20;99.90
50586;DHT22;36542;51.700;8.846;2024-03-02T13:22:57;13.10;99.90
50586;DHT22;36542;51.700;8.846;2024-03-02T13:25:23;13.00;99.90
50586;DHT22;36542;51.700;8.846;2024-03-02T13:27:49;12.80;99.90
50586;DHT22;36542;51.700;8.846;2024-03-02T13:30:14;13.00;99.90
50586;DHT22;36542;51.700;8.846;2024-03-02T13:32:40;13.30;99.90
50586;DHT22;36542;51.700;8.846;2024-03-02T13:35:06;13.30;99.90
50586;DHT22;36542;51.700;8.846;2024-03-02T13:37:32;13.40;99.90
50586;DHT22;36542;51.700;8.846;2024-03-02T13:39:57;13.70;99.90
50586;DHT22;36542;51.700;8.846;2024-03-02T13:42:24;13.60;99.90
50586;DHT22;36542;51.700;8.846;2024-03-02T13:44:49;13.80;99.90
50586;DHT22;36542;51.700;8.846;2024-03-02T13:47:17;13.70;99.90
50586;DHT22;36542;51.700;8.846;2024-03-02T13:49:42;13.70;99.90
50586;DHT22;36542;51.700;8.846;2024-03-02T13:52:12;13.70;99.90
50586;DHT22;36542;51.700;8.846;2024-03-02T13:54:43;13.70;99.90
50586;DHT22;36542;51.700;8.846;2024-03-02T13:57:10;13.70;99.90
50586;DHT22;36542;51.700;8.846;2024-03-02T13:59:36;13.70;99.90
50586;DHT22;36542;51.700;8.846;2024-03-02T14:02:02;13.70;99.90
50586;DHT22;36542;51.700;8.846;2024-03-02T14:04:34;13.80;99.90
50586;DHT22;36542;51.700;8.846;2024-03-02T14:07:01;13.70;99.90
50586;DHT22;36542;51.700;8.846;2024-03-02T14:09:27;13.50;99.90
50586;DHT22;36542;51.700;8.846;2024-03-02T14:11:54;13.50;99.90
50586;DHT22;36542;51.700;8.846;2024-03-02T14:14:19;13.40;99.90
50586;DHT22;36542;51.700;8.846;2024-03-02T14:16:45;13.50;99.90
50586;DHT22;36542;51.700;8.846;2024-03-02T14:19:12;13.70;99.90
50586;DHT22;36542;51.700;8.846;2024-03-02T14:21:38;13.70;99.90
50586;DHT22;36542;51.700;8.846;2024-03-02T14:24:04;13.80;99.90
50586;DHT22;36542;51.700;8.846;2024-03-02T14:26:32;13.80;99.90
50586;DHT22;36542;51.700;8.846;2024-03-02T14:28:59;13.60;99.90
50586;DHT22;36542;51.700;8.846;2024-03-02T14:31:26;13.70;99.90
50586;DHT22;36542;51.700;8.846;2024-03-02T14:33:52;13.50;99.90
50586;DHT22;36542;51.700;8.846;2024-03-02T14:36:18;13.50;99.90
50586;DHT22;36542;51.700;8.846;2024-03-02T14:38:44;13.50;99.90
50586;DHT22;36542;51.700;8.846;2024-03-02T14:41:10;13.60;99.90
50586;DHT22;36542;51.700;8.846;2024-03-02T14:43:36;13.60;99.90
50586;DHT22;36542;51.700;8.846;2024-03-02T14:46:03;13.50;99.90
50586;DHT22;36542;51.700;8.846;2024-03-02T14:48:29;13.70;99.90
50586;DHT22;36542;51.700;8.846;2024-03-02T14:50:55;13.70;99.90
50586;DHT22;36542;51.700;8.846;2024-03-02T14:53:21;13.70;99.90
50586;DHT22;36542;51.700;8.846;2024-03-02T14:55:47;13.50;99.90
50586;DHT22;36542;51.700;8.846;2024-03-02T14:58:12;13.30;99.90
50586;DHT22;36542;51.700;8.846;2024-03-02T15:00:38;13.20;99.90
50586;DHT22;36542;51.700;8.846;2024-03-02T15:03:04;13.30;99.90
50586;DHT22;36542;51.700;8.846;2024-03-02T15:05:33;13.40;99.90
50586;DHT22;36542;51.700;8.846;2024-03-02T15:07:58;13.50;99.90
50586;DHT22;36542;51.700;8.846;2024-03-02T15:10:27;13.60;99.90
50586;DHT22;36542;51.700;8.846;2024-03-02T15:12:53;13.60;99.90
50586;DHT22;36542;51.700;8.846;2024-03-02T15:15:18;13.50;99.90
50586;DHT22;36542;51.700;8.846;2024-03-02T15:17:44;13.40;99.90
50586;DHT22;36542;51.700;8.846;2024-03-02T15:20:10;13.40;99.90
50586;DHT22;36542;51.700;8.846;2024-03-02T15:22:36;13.40;99.90
50586;DHT22;36542;51.700;8.846;2024-03-02T15:25:01;13.50;99.90
50586;DHT22;36542;51.700;8.846;2024-03-02T15:27:27;13.60;99.90
50586;DHT22;36542;51.700;8.846;2024-03-02T15:29:53;13.50;99.90
50586;DHT22;36542;51.700;8.846;2024-03-02T15:32:20;13.40;99.90
50586;DHT22;36542;51.700;8.846;2024-03-02T15:34:46;13.40;99.90
50586;DHT22;36542;51.700;8.846;2024-03-02T15:37:12;13.30;99.90
50586;DHT22;36542;51.700;8.846;2024-03-02T15:39:37;13.30;99.90
50586;DHT22;36542;51.700;8.846;2024-03-02T15:42:03;13.30;99.90
50586;DHT22;36542;51.700;8.846;2024-03-02T15:44:30;13.20;99.90
50586;DHT22;36542;51.700;8.846;2024-03-02T15:46:57;13.20;99.90
50586;DHT22;36542;51.700;8.846;2024-03-02T15:49:24;13.20;99.90